Time;durP1;ratioP1;P1;durP2;ratioP2;P2;SDS_P1;SDS_P2;PMS_P1;PMS_P2;Temp;Humidity;BMP_temperature;BMP_pressure;BME280_temperature;BME280_humidity;BME280_pressure;Samples;Min_cycle;Max_cycle;Signal;HPM_P1;HPM_P2
2023/07/17 00:00:43;;;;;;;14.35;3.10;;;;;;;;;;5072550;28;20033;-73
2023/07/17 00:03:09;;;;;;;11.23;3.08;;;;;;;;;;5072421;28;20052;-73
2023/07/17 00:05:35;;;;;;;12.30;3.13;;;;;;;;;;5072079;28;20048;-73
2023/07/17 00:08:02;;;;;;;11.88;3.30;;;;;;;;;;5073093;28;20090;-73
2023/07/17 00:10:28;;;;;;;11.85;3.03;;;;;;;;;;5068554;28;20072;-73
2023/07/17 00:12:54;;;;;;;9.93;2.92;;;;;;;;;;5062988;28;20045;-73
2023/07/17 00:15:20;;;;;;;9.93;3.08;;;;;;;;;;5072101;28;20039;-73
2023/07/17 00:17:46;;;;;;;11.55;3.05;;;;;;;;;;5072880;28;20052;-73
2023/07/17 00:20:12;;;;;;;11.93;3.22;;;;;;;;;;5072292;28;20067;-72
2023/07/17 00:22:38;;;;;;;11.10;3.40;;;;;;;;;;5072870;28;20076;-73
2023/07/17 00:25:05;;;;;;;10.88;3.03;;;;;;;;;;5072608;28;20127;-73
2023/07/17 00:27:31;;;;;;;12.05;3.17;;;;;;;;;;5071423;28;20083;-73
2023/07/17 00:29:57;;;;;;;10.45;3.55;;;;;;;;;;5054436;28;20468;-73
2023/07/17 00:32:23;;;;;;;16.95;3.58;;;;;;;;;;5072577;28;20036;-73
2023/07/17 00:34:50;;;;;;;12.02;3.85;;;;;;;;;;5072525;28;20041;-72
2023/07/17 00:37:16;;;;;;;8.48;3.25;;;;;;;;;;5072310;28;20473;-74
2023/07/17 00:39:42;;;;;;;10.95;3.10;;;;;;;;;;5071102;28;20135;-72
2023/07/17 00:42:08;;;;;;;11.23;3.28;;;;;;;;;;5072293;28;20048;-73
2023/07/17 00:44:38;;;;;;;9.85;3.00;;;;;;;;;;5071132;28;20101;-72
2023/07/17 00:47:05;;;;;;;11.50;3.10;;;;;;;;;;5072027;28;20134;-73
2023/07/17 00:49:31;;;;;;;18.63;3.63;;;;;;;;;;5071929;28;20068;-73
2023/07/17 00:51:58;;;;;;;11.38;3.50;;;;;;;;;;5071748;28;20048;-72
2023/07/17 00:54:26;;;;;;;9.50;3.20;;;;;;;;;;5072186;28;20106;-72
2023/07/17 00:56:53;;;;;;;9.55;3.10;;;;;;;;;;5070391;28;20040;-72
2023/07/17 00:59:19;;;;;;;10.88;3.20;;;;;;;;;;5070495;28;20044;-72
2023/07/17 01:01:46;;;;;;;7.28;2.78;;;;;;;;;;5071872;28;20037;-72
2023/07/17 01:04:14;;;;;;;11.80;3.00;;;;;;;;;;5071945;28;20443;-73
2023/07/17 01:06:40;;;;;;;6.45;2.63;;;;;;;;;;5071603;28;20036;-72
2023/07/17 01:09:07;;;;;;;7.35;2.53;;;;;;;;;;5071663;28;20076;-73
2023/07/17 01:11:34;;;;;;;8.65;2.80;;;;;;;;;;5075410;28;20056;-72
2023/07/17 01:14:00;;;;;;;7.80;2.70;;;;;;;;;;5072714;28;20103;-71
2023/07/17 01:16:26;;;;;;;6.35;2.55;;;;;;;;;;5077899;28;20041;-72
2023/07/17 01:18:53;;;;;;;5.85;2.50;;;;;;;;;;5065534;28;20048;-72
2023/07/17 01:21:22;;;;;;;5.63;2.55;;;;;;;;;;5074584;28;20044;-73
2023/07/17 01:23:48;;;;;;;7.50;2.63;;;;;;;;;;5074452;28;20044;-74
2023/07/17 01:26:17;;;;;;;7.32;2.70;;;;;;;;;;5075523;28;20040;-73
2023/07/17 01:28:44;;;;;;;7.43;2.70;;;;;;;;;;5075810;28;20386;-73
2023/07/17 01:31:10;;;;;;;6.93;2.80;;;;;;;;;;5074659;28;20041;-73
2023/07/17 01:33:37;;;;;;;5.85;2.47;;;;;;;;;;5076103;28;20393;-73
2023/07/17 01:36:03;;;;;;;12.38;2.80;;;;;;;;;;5075027;28;20048;-73
2023/07/17 01:38:30;;;;;;;6.03;2.60;;;;;;;;;;5074763;28;20047;-73
2023/07/17 01:40:56;;;;;;;9.15;2.67;;;;;;;;;;5073870;28;20032;-73
2023/07/17 01:43:22;;;;;;;6.25;2.60;;;;;;;;;;5075309;28;20052;-73
2023/07/17 01:45:48;;;;;;;7.20;2.47;;;;;;;;;;5073848;28;20497;-73
2023/07/17 01:48:17;;;;;;;9.05;2.80;;;;;;;;;;5075094;28;20044;-73
2023/07/17 01:50:43;;;;;;;6.32;2.67;;;;;;;;;;5073435;28;20123;-74
2023/07/17 01:53:09;;;;;;;6.88;3.03;;;;;;;;;;5075303;28;20058;-74
2023/07/17 01:55:35;;;;;;;5.90;2.78;;;;;;;;;;5071926;28;20043;-73
2023/07/17 01:58:02;;;;;;;7.47;2.92;;;;;;;;;;5074749;28;20052;-73
2023/07/17 02:00:28;;;;;;;8.43;3.13;;;;;;;;;;5055477;28;20049;-73
2023/07/17 02:02:54;;;;;;;9.98;3.03;;;;;;;;;;5074201;28;20036;-73
2023/07/17 02:05:20;;;;;;;9.63;3.05;;;;;;;;;;5073865;28;20037;-73
2023/07/17 02:07:47;;;;;;;9.50;3.00;;;;;;;;;;5075250;28;20048;-73
2023/07/17 02:10:13;;;;;;;8.35;2.80;;;;;;;;;;5073508;28;20760;-74
2023/07/17 02:12:39;;;;;;;8.30;3.08;;;;;;;;;;5067047;28;20045;-73
2023/07/17 02:15:08;;;;;;;11.30;2.83;;;;;;;;;;5073568;28;20051;-73
2023/07/17 02:17:35;;;;;;;8.35;3.03;;;;;;;;;;5073554;28;20494;-73
2023/07/17 02:20:01;;;;;;;6.50;2.83;;;;;;;;;;5073434;28;20128;-73
2023/07/17 02:22:27;;;;;;;8.38;3.42;;;;;;;;;;5073080;28;20048;-72
2023/07/17 02:24:54;;;;;;;10.52;3.28;;;;;;;;;;5070107;28;20505;-73
2023/07/17 02:27:20;;;;;;;8.23;3.00;;;;;;;;;;5072671;28;20049;-73
2023/07/17 02:29:47;;;;;;;10.43;3.65;;;;;;;;;;5071131;28;20048;-73
2023/07/17 02:32:13;;;;;;;9.27;2.97;;;;;;;;;;5071854;28;20047;-73
2023/07/17 02:34:39;;;;;;;9.43;3.08;;;;;;;;;;5073321;28;20448;-73
2023/07/17 02:37:12;;;;;;;12.43;3.70;;;;;;;;;;5072115;28;20036;-73
2023/07/17 02:39:38;;;;;;;9.18;3.05;;;;;;;;;;5055671;28;20053;-73
2023/07/17 02:42:04;;;;;;;8.27;3.60;;;;;;;;;;5072690;28;20366;-73
2023/07/17 02:44:30;;;;;;;8.18;3.25;;;;;;;;;;5073454;28;20055;-73
2023/07/17 02:46:57;;;;;;;8.23;3.03;;;;;;;;;;5073154;28;20405;-73
2023/07/17 02:49:23;;;;;;;7.85;3.28;;;;;;;;;;5072756;28;20174;-73
2023/07/17 02:51:49;;;;;;;11.32;3.97;;;;;;;;;;5055007;28;20052;-73
2023/07/17 02:54:15;;;;;;;10.32;3.42;;;;;;;;;;5072963;28;20037;-73
2023/07/17 02:56:41;;;;;;;9.75;3.35;;;;;;;;;;5072771;28;20045;-73
2023/07/17 02:59:07;;;;;;;7.28;3.30;;;;;;;;;;5072617;28;20495;-73
2023/07/17 03:01:33;;;;;;;10.05;3.80;;;;;;;;;;5071380;28;20059;-74
2023/07/17 03:03:59;;;;;;;8.88;3.38;;;;;;;;;;5072152;28;20400;-73
2023/07/17 03:06:25;;;;;;;13.10;3.80;;;;;;;;;;5072177;28;20044;-73
2023/07/17 03:08:52;;;;;;;11.27;3.83;;;;;;;;;;5034072;28;1111727;-73
2023/07/17 03:11:18;;;;;;;12.65;3.85;;;;;;;;;;5073189;28;20552;-73
2023/07/17 03:13:44;;;;;;;13.50;4.47;;;;;;;;;;5072272;28;20132;-73
2023/07/17 03:16:10;;;;;;;9.27;3.92;;;;;;;;;;5070938;28;20508;-73
2023/07/17 03:18:36;;;;;;;9.85;3.85;;;;;;;;;;5073968;28;20049;-73
2023/07/17 03:21:03;;;;;;;10.70;4.25;;;;;;;;;;5058481;28;20080;-72
2023/07/17 03:23:29;;;;;;;10.55;3.58;;;;;;;;;;5064175;28;20484;-73
2023/07/17 03:25:58;;;;;;;11.68;3.70;;;;;;;;;;5068036;28;20044;-72
2023/07/17 03:28:25;;;;;;;7.88;3.30;;;;;;;;;;5074025;28;20048;-72
2023/07/17 03:30:51;;;;;;;10.55;3.50;;;;;;;;;;5073404;28;20048;-73
2023/07/17 03:33:17;;;;;;;10.13;3.75;;;;;;;;;;5073763;28;20114;-72
2023/07/17 03:35:43;;;;;;;9.93;3.10;;;;;;;;;;5072974;28;20041;-72
2023/07/17 03:38:09;;;;;;;9.65;3.60;;;;;;;;;;5072396;28;20045;-73
2023/07/17 03:40:35;;;;;;;9.13;3.20;;;;;;;;;;5072989;28;20401;-73
2023/07/17 03:43:02;;;;;;;11.52;3.65;;;;;;;;;;5073287;28;20063;-73
2023/07/17 03:45:28;;;;;;;8.63;3.20;;;;;;;;;;5072160;28;20431;-73
2023/07/17 03:47:54;;;;;;;9.60;3.40;;;;;;;;;;5073351;28;20040;-73
2023/07/17 03:50:20;;;;;;;10.57;3.88;;;;;;;;;;5072652;28;20036;-73
2023/07/17 03:52:46;;;;;;;10.23;3.55;;;;;;;;;;5071054;28;20037;-73
2023/07/17 03:55:12;;;;;;;11.95;3.58;;;;;;;;;;5072067;28;20041;-73
2023/07/17 03:57:38;;;;;;;11.35;3.30;;;;;;;;;;5071770;28;20044;-73
2023/07/17 04:00:08;;;;;;;13.93;3.83;;;;;;;;;;5072197;28;20043;-73
2023/07/17 04:02:34;;;;;;;13.10;3.65;;;;;;;;;;5071481;28;20497;-73
2023/07/17 04:05:00;;;;;;;8.93;3.20;;;;;;;;;;5071472;28;20049;-72
2023/07/17 04:07:26;;;;;;;12.20;3.80;;;;;;;;;;5072771;28;20080;-73
2023/07/17 04:09:53;;;;;;;9.57;3.38;;;;;;;;;;5072387;28;20076;-73
2023/07/17 04:12:19;;;;;;;9.98;3.47;;;;;;;;;;5071853;28;20186;-73
2023/07/17 04:14:45;;;;;;;10.88;3.75;;;;;;;;;;5071518;28;20048;-73
2023/07/17 04:17:11;;;;;;;10.50;3.20;;;;;;;;;;5072955;28;20048;-73
2023/07/17 04:19:37;;;;;;;14.10;3.42;;;;;;;;;;5072538;28;20044;-73
2023/07/17 04:22:03;;;;;;;11.25;3.58;;;;;;;;;;5072631;28;20400;-73
2023/07/17 04:24:29;;;;;;;9.10;3.20;;;;;;;;;;5072577;28;20044;-73
2023/07/17 04:26:55;;;;;;;12.65;3.47;;;;;;;;;;5071516;28;20037;-73
2023/07/17 04:29:25;;;;;;;10.18;3.38;;;;;;;;;;5071333;28;20076;-73
2023/07/17 04:31:51;;;;;;;10.68;3.40;;;;;;;;;;5071030;28;20051;-73
2023/07/17 04:34:17;;;;;;;14.73;3.53;;;;;;;;;;5071398;28;20044;-73
2023/07/17 04:36:43;;;;;;;14.02;3.65;;;;;;;;;;5072426;28;20048;-73
2023/07/17 04:39:09;;;;;;;10.75;3.75;;;;;;;;;;5071034;28;20048;-73
2023/07/17 04:41:35;;;;;;;7.60;3.25;;;;;;;;;;5072518;28;20067;-73
2023/07/17 04:44:02;;;;;;;12.75;3.97;;;;;;;;;;5072665;28;20083;-73
2023/07/17 04:46:28;;;;;;;12.13;3.50;;;;;;;;;;5072687;28;20071;-73
2023/07/17 04:48:54;;;;;;;11.13;3.67;;;;;;;;;;5072364;28;20218;-73
2023/07/17 04:51:20;;;;;;;11.82;4.28;;;;;;;;;;5071669;28;20100;-73
2023/07/17 04:53:47;;;;;;;14.57;3.90;;;;;;;;;;5074931;28;20145;-72
2023/07/17 04:56:13;;;;;;;16.80;4.10;;;;;;;;;;5075989;28;20086;-72
2023/07/17 04:58:39;;;;;;;13.23;3.47;;;;;;;;;;5071441;28;20044;-73
2023/07/17 05:01:05;;;;;;;11.32;3.92;;;;;;;;;;5072283;28;20083;-73
2023/07/17 05:03:32;;;;;;;12.43;3.75;;;;;;;;;;5071904;28;20052;-73
2023/07/17 05:05:58;;;;;;;9.73;3.53;;;;;;;;;;5071487;28;20453;-72
2023/07/17 05:08:26;;;;;;;15.25;4.00;;;;;;;;;;5071393;28;20417;-73
2023/07/17 05:11:02;;;;;;;11.82;3.42;;;;;;;;;;5068339;28;20049;-73
2023/07/17 05:13:29;;;;;;;11.98;3.75;;;;;;;;;;5071824;28;20048;-74
2023/07/17 05:15:55;;;;;;;12.70;3.78;;;;;;;;;;5070561;28;20481;-73
2023/07/17 05:18:21;;;;;;;15.25;4.18;;;;;;;;;;5071177;28;20044;-74
2023/07/17 05:20:49;;;;;;;11.63;3.80;;;;;;;;;;5068478;28;20036;-73
2023/07/17 05:23:15;;;;;;;12.52;4.00;;;;;;;;;;5070101;28;20097;-74
2023/07/17 05:25:42;;;;;;;13.95;4.95;;;;;;;;;;5071048;28;20048;-73
2023/07/17 05:28:09;;;;;;;12.60;3.78;;;;;;;;;;5072152;28;20048;-73
2023/07/17 05:30:35;;;;;;;8.90;3.58;;;;;;;;;;5071336;28;20413;-73
2023/07/17 05:33:02;;;;;;;11.73;3.85;;;;;;;;;;5071672;28;20045;-74
2023/07/17 05:35:28;;;;;;;12.82;3.83;;;;;;;;;;5071437;28;20417;-73
2023/07/17 05:37:54;;;;;;;8.98;3.88;;;;;;;;;;5070472;28;20045;-73
2023/07/17 05:40:20;;;;;;;14.55;4.68;;;;;;;;;;5071405;28;20044;-72
2023/07/17 05:42:46;;;;;;;12.70;3.85;;;;;;;;;;5072213;28;20052;-73
2023/07/17 05:45:13;;;;;;;14.45;3.90;;;;;;;;;;5071502;28;20134;-73
2023/07/17 05:47:39;;;;;;;11.30;3.95;;;;;;;;;;5070513;28;20354;-73
2023/07/17 05:50:06;;;;;;;11.68;3.85;;;;;;;;;;5070837;28;20049;-73
2023/07/17 05:52:32;;;;;;;15.90;3.97;;;;;;;;;;5071724;28;20079;-73
2023/07/17 05:54:58;;;;;;;14.85;4.00;;;;;;;;;;5070513;28;20127;-73
2023/07/17 05:57:24;;;;;;;13.48;4.43;;;;;;;;;;5071075;28;20119;-74
2023/07/17 05:59:50;;;;;;;11.38;4.35;;;;;;;;;;5070798;28;20041;-74
2023/07/17 06:02:16;;;;;;;13.02;4.20;;;;;;;;;;5073586;28;20048;-73
2023/07/17 06:04:42;;;;;;;15.82;4.53;;;;;;;;;;5075065;28;20045;-74
2023/07/17 06:07:10;;;;;;;10.80;4.22;;;;;;;;;;5073743;28;20040;-73
2023/07/17 06:09:37;;;;;;;12.85;4.18;;;;;;;;;;5074681;28;20140;-73
2023/07/17 06:12:03;;;;;;;11.02;4.10;;;;;;;;;;5074867;28;20052;-74
2023/07/17 06:14:29;;;;;;;10.63;4.03;;;;;;;;;;5073712;28;20076;-73
2023/07/17 06:16:55;;;;;;;16.13;4.55;;;;;;;;;;5074825;28;20085;-73
2023/07/17 06:19:21;;;;;;;14.13;4.38;;;;;;;;;;5082934;28;20043;-73
2023/07/17 06:21:47;;;;;;;14.57;4.70;;;;;;;;;;5077212;28;20044;-73
2023/07/17 06:24:13;;;;;;;15.95;4.93;;;;;;;;;;5073128;28;20432;-73
2023/07/17 06:26:41;;;;;;;21.75;5.15;;;;;;;;;;5074517;28;20480;-73
2023/07/17 06:29:09;;;;;;;12.45;4.82;;;;;;;;;;5074468;28;20130;-73
2023/07/17 06:31:35;;;;;;;15.07;4.75;;;;;;;;;;5074260;28;20047;-73
2023/07/17 06:34:01;;;;;;;14.88;5.30;;;;;;;;;;5072812;28;20127;-72
2023/07/17 06:36:28;;;;;;;13.98;4.90;;;;;;;;;;5074268;28;20405;-72
2023/07/17 06:38:54;;;;;;;15.10;5.22;;;;;;;;;;5074499;28;20420;-73
2023/07/17 06:43:46;;;;;;;14.30;4.78;;;;;;;;;;5047601;22;20060;-73
2023/07/17 06:46:13;;;;;;;15.32;4.80;;;;;;;;;;5062204;28;20526;-73
2023/07/17 06:48:39;;;;;;;13.93;5.18;;;;;;;;;;5050530;28;20044;-74
2023/07/17 06:51:05;;;;;;;15.23;4.97;;;;;;;;;;5085942;28;20055;-73
2023/07/17 06:53:31;;;;;;;14.48;5.00;;;;;;;;;;5069756;28;20314;-73
2023/07/17 06:55:59;;;;;;;11.82;4.93;;;;;;;;;;5068077;28;20045;-73
2023/07/17 06:58:25;;;;;;;11.45;4.68;;;;;;;;;;5051055;28;20484;-73
2023/07/17 07:00:58;;;;;;;13.38;4.55;;;;;;;;;;5068141;28;20047;-73
2023/07/17 07:03:26;;;;;;;12.73;5.32;;;;;;;;;;5069869;28;20049;-73
2023/07/17 07:05:56;;;;;;;15.13;4.70;;;;;;;;;;5065695;28;20173;-75
2023/07/17 07:08:26;;;;;;;15.20;5.00;;;;;;;;;;5051270;28;20052;-75
2023/07/17 07:10:52;;;;;;;16.10;4.82;;;;;;;;;;5067865;28;20047;-76
2023/07/17 07:13:19;;;;;;;16.05;5.22;;;;;;;;;;5068351;28;20040;-75
2023/07/17 07:15:45;;;;;;;15.35;5.05;;;;;;;;;;5067124;28;20037;-74
2023/07/17 07:18:12;;;;;;;13.52;5.43;;;;;;;;;;5035024;28;20110;-75
2023/07/17 07:20:38;;;;;;;12.18;4.65;;;;;;;;;;5049171;28;20381;-75
2023/07/17 07:23:04;;;;;;;14.48;5.10;;;;;;;;;;5069370;28;20098;-75
2023/07/17 07:25:30;;;;;;;14.85;5.47;;;;;;;;;;5046246;28;20489;-75
2023/07/17 07:27:59;;;;;;;11.02;4.35;;;;;;;;;;5052782;28;20055;-75
2023/07/17 07:30:25;;;;;;;11.98;4.60;;;;;;;;;;5076218;28;20153;-75
2023/07/17 07:32:51;;;;;;;10.85;3.90;;;;;;;;;;5053595;28;20077;-74
2023/07/17 07:35:17;;;;;;;11.30;3.88;;;;;;;;;;5050454;28;20060;-74
2023/07/17 07:37:43;;;;;;;9.48;3.97;;;;;;;;;;5068193;28;20425;-75
2023/07/17 07:40:12;;;;;;;9.50;3.40;;;;;;;;;;5066664;28;20048;-74
2023/07/17 07:42:39;;;;;;;12.25;4.00;;;;;;;;;;5065439;28;20132;-74
2023/07/17 07:45:05;;;;;;;9.40;4.10;;;;;;;;;;5068508;28;20052;-74
2023/07/17 07:47:32;;;;;;;10.82;4.20;;;;;;;;;;5067397;28;20475;-74
2023/07/17 07:49:58;;;;;;;8.50;3.53;;;;;;;;;;5067367;28;20044;-74
2023/07/17 07:52:24;;;;;;;12.02;4.13;;;;;;;;;;5050435;28;20439;-74
2023/07/17 07:54:50;;;;;;;13.88;4.25;;;;;;;;;;5065078;28;20229;-74
2023/07/17 07:57:16;;;;;;;8.90;4.32;;;;;;;;;;5066974;28;20095;-74
2023/07/17 07:59:42;;;;;;;11.85;3.97;;;;;;;;;;5067012;28;20045;-75
2023/07/17 08:02:10;;;;;;;10.27;4.05;;;;;;;;;;5049168;28;20071;-75
2023/07/17 08:04:36;;;;;;;14.68;4.47;;;;;;;;;;5067810;28;20044;-74
2023/07/17 08:07:03;;;;;;;9.65;3.83;;;;;;;;;;5050159;28;20080;-74
2023/07/17 08:09:29;;;;;;;10.90;4.10;;;;;;;;;;5067775;28;20188;-75
2023/07/17 08:11:56;;;;;;;11.45;4.80;;;;;;;;;;5028357;28;20056;-75
2023/07/17 08:14:22;;;;;;;13.70;4.50;;;;;;;;;;5048185;28;20041;-73
2023/07/17 08:16:49;;;;;;;11.60;4.57;;;;;;;;;;5051903;28;20048;-74
2023/07/17 08:19:15;;;;;;;10.50;4.45;;;;;;;;;;5049787;28;20044;-73
2023/07/17 08:21:42;;;;;;;12.98;4.40;;;;;;;;;;5061408;28;20036;-74
2023/07/17 08:24:09;;;;;;;13.93;5.07;;;;;;;;;;5066863;28;20119;-75
2023/07/17 08:26:35;;;;;;;15.80;4.38;;;;;;;;;;5035984;28;20119;-75
2023/07/17 08:29:03;;;;;;;10.98;4.07;;;;;;;;;;5067284;28;20083;-74
2023/07/17 08:31:31;;;;;;;10.82;3.90;;;;;;;;;;5067294;28;20045;-74
2023/07/17 08:33:58;;;;;;;10.02;3.97;;;;;;;;;;5047904;28;20054;-74
2023/07/17 08:36:24;;;;;;;10.70;3.63;;;;;;;;;;5067747;28;20391;-75
2023/07/17 08:38:50;;;;;;;10.57;3.80;;;;;;;;;;5063400;28;20082;-74
2023/07/17 08:41:16;;;;;;;10.35;3.72;;;;;;;;;;5066161;28;20044;-74
2023/07/17 08:43:43;;;;;;;9.30;4.00;;;;;;;;;;5049859;28;20079;-74
2023/07/17 08:46:09;;;;;;;11.27;3.88;;;;;;;;;;5051790;28;20044;-73
2023/07/17 08:48:36;;;;;;;9.30;3.35;;;;;;;;;;5066170;28;20044;-75
2023/07/17 08:51:02;;;;;;;11.38;3.70;;;;;;;;;;5066552;28;20116;-74
2023/07/17 08:53:29;;;;;;;10.27;3.80;;;;;;;;;;5066647;28;20187;-76
2023/07/17 08:55:55;;;;;;;11.60;3.72;;;;;;;;;;5066558;28;21062;-75
2023/07/17 08:58:26;;;;;;;9.25;3.60;;;;;;;;;;5066060;28;20388;-73
2023/07/17 09:00:52;;;;;;;10.65;3.35;;;;;;;;;;5067620;28;20383;-71
2023/07/17 09:03:19;;;;;;;6.75;2.97;;;;;;;;;;5066144;28;20037;-71
2023/07/17 09:05:45;;;;;;;10.38;3.30;;;;;;;;;;5065714;28;20456;-71
2023/07/17 09:08:12;;;;;;;11.10;3.05;;;;;;;;;;5044999;28;20073;-73
2023/07/17 09:10:39;;;;;;;9.52;3.10;;;;;;;;;;5028018;28;20453;-72
2023/07/17 09:13:05;;;;;;;8.75;2.78;;;;;;;;;;5046508;28;20045;-73
2023/07/17 09:15:32;;;;;;;9.02;3.05;;;;;;;;;;5046430;28;20123;-72
2023/07/17 09:17:58;;;;;;;10.13;2.97;;;;;;;;;;5046741;28;20056;-72
2023/07/17 09:20:25;;;;;;;8.70;2.92;;;;;;;;;;5046171;28;20041;-72
2023/07/17 09:22:54;;;;;;;7.88;3.20;;;;;;;;;;5047219;28;20037;-73
2023/07/17 09:25:20;;;;;;;9.45;3.10;;;;;;;;;;5049624;28;20048;-71
2023/07/17 09:27:47;;;;;;;8.88;3.08;;;;;;;;;;5052119;28;20041;-71
2023/07/17 09:30:23;;;;;;;8.02;2.97;;;;;;;;;;5049594;28;20056;-73
2023/07/17 09:32:50;;;;;;;10.27;3.22;;;;;;;;;;5028210;28;20048;-73
2023/07/17 09:35:20;;;;;;;10.00;2.70;;;;;;;;;;5061435;28;20048;-73
2023/07/17 09:37:46;;;;;;;7.32;2.78;;;;;;;;;;5068982;28;20049;-72
2023/07/17 09:40:13;;;;;;;8.27;2.80;;;;;;;;;;5070498;28;20109;-73
2023/07/17 09:42:43;;;;;;;6.72;2.60;;;;;;;;;;5069825;28;20373;-73
2023/07/17 09:45:14;;;;;;;6.32;2.55;;;;;;;;;;5070144;28;20079;-72
2023/07/17 09:47:41;;;;;;;10.80;2.60;;;;;;;;;;5069470;28;20044;-71
2023/07/17 09:50:10;;;;;;;8.85;3.03;;;;;;;;;;5070684;28;20037;-72
2023/07/17 09:52:36;;;;;;;5.93;2.33;;;;;;;;;;5070850;28;20128;-72
2023/07/17 09:55:02;;;;;;;7.28;2.40;;;;;;;;;;5069761;28;20058;-72
2023/07/17 09:57:28;;;;;;;11.07;3.08;;;;;;;;;;5052539;28;20033;-73
2023/07/17 09:59:59;;;;;;;7.28;2.40;;;;;;;;;;5036849;28;20419;-71
2023/07/17 10:02:30;;;;;;;4.60;2.17;;;;;;;;;;5069881;28;20047;-72
2023/07/17 10:04:58;;;;;;;9.23;2.60;;;;;;;;;;5069604;28;20048;-74
2023/07/17 10:07:25;;;;;;;6.97;2.42;;;;;;;;;;5071703;28;20041;-74
2023/07/17 10:09:51;;;;;;;7.97;2.47;;;;;;;;;;5053102;28;20049;-74
2023/07/17 10:12:18;;;;;;;9.52;3.15;;;;;;;;;;5069131;28;20036;-73
2023/07/17 10:14:45;;;;;;;7.90;2.63;;;;;;;;;;5051672;28;20044;-73
2023/07/17 10:17:24;;;;;;;9.70;2.53;;;;;;;;;;5050712;28;20051;-74
2023/07/17 10:19:50;;;;;;;8.85;3.00;;;;;;;;;;5069406;28;20128;-74
2023/07/17 10:22:16;;;;;;;10.15;2.72;;;;;;;;;;5069486;28;20087;-74
2023/07/17 10:24:43;;;;;;;8.80;2.47;;;;;;;;;;5051756;28;20045;-74
2023/07/17 10:27:09;;;;;;;8.68;2.53;;;;;;;;;;5071488;28;20110;-74
2023/07/17 10:29:41;;;;;;;8.25;2.30;;;;;;;;;;5051844;28;20053;-75
2023/07/17 10:32:11;;;;;;;8.38;2.70;;;;;;;;;;5070279;28;20368;-74
2023/07/17 10:34:53;;;;;;;8.95;2.47;;;;;;;;;;5069863;28;20340;-74
2023/07/17 10:37:25;;;;;;;10.32;2.60;;;;;;;;;;5069457;28;20040;-74
2023/07/17 10:39:51;;;;;;;6.10;2.40;;;;;;;;;;5069718;28;20114;-74
2023/07/17 10:42:17;;;;;;;7.45;2.40;;;;;;;;;;5051072;28;20055;-74
2023/07/17 10:44:43;;;;;;;6.88;2.33;;;;;;;;;;5069982;28;20055;-74
2023/07/17 10:47:09;;;;;;;9.18;2.55;;;;;;;;;;5070424;28;20476;-74
2023/07/17 10:49:36;;;;;;;7.32;2.38;;;;;;;;;;5050734;28;20060;-74
2023/07/17 10:52:03;;;;;;;7.43;2.60;;;;;;;;;;5073382;28;20055;-74
2023/07/17 10:54:29;;;;;;;6.30;2.40;;;;;;;;;;5069301;28;20067;-74
2023/07/17 10:56:56;;;;;;;9.93;2.45;;;;;;;;;;5030697;28;20064;-75
2023/07/17 10:59:23;;;;;;;6.88;2.67;;;;;;;;;;5067565;28;20110;-75
2023/07/17 11:01:49;;;;;;;6.32;2.47;;;;;;;;;;5066243;28;20041;-75
2023/07/17 11:04:15;;;;;;;8.48;2.63;;;;;;;;;;5065949;28;20076;-75
2023/07/17 11:06:42;;;;;;;7.82;2.28;;;;;;;;;;5067492;28;20439;-74
2023/07/17 11:09:08;;;;;;;7.32;2.10;;;;;;;;;;5068581;28;20222;-74
2023/07/17 11:11:34;;;;;;;7.00;2.53;;;;;;;;;;5061613;28;20082;-74
2023/07/17 11:14:00;;;;;;;6.28;2.50;;;;;;;;;;5049829;28;20040;-74
2023/07/17 11:16:27;;;;;;;5.15;2.40;;;;;;;;;;5046200;28;20501;-75
2023/07/17 11:18:55;;;;;;;4.88;2.40;;;;;;;;;;5034368;28;20045;-75
2023/07/17 11:21:22;;;;;;;4.55;2.20;;;;;;;;;;5052028;28;20488;-74
2023/07/17 11:23:49;;;;;;;4.90;2.33;;;;;;;;;;5052073;28;20068;-75
2023/07/17 11:26:20;;;;;;;7.30;2.63;;;;;;;;;;5051860;28;20451;-74
2023/07/17 11:28:50;;;;;;;5.90;2.05;;;;;;;;;;5051431;28;20045;-75
2023/07/17 11:31:20;;;;;;;7.43;2.40;;;;;;;;;;5050473;28;20049;-74
2023/07/17 11:33:58;;;;;;;5.00;2.10;;;;;;;;;;5034357;28;20056;-74
2023/07/17 11:36:25;;;;;;;4.30;2.05;;;;;;;;;;5051542;28;20045;-75
2023/07/17 11:38:51;;;;;;;8.45;2.40;;;;;;;;;;5035195;28;20053;-74
2023/07/17 11:41:18;;;;;;;8.82;2.60;;;;;;;;;;5072494;28;20483;-73
2023/07/17 11:43:44;;;;;;;6.28;2.30;;;;;;;;;;5072232;28;20067;-74
2023/07/17 11:46:11;;;;;;;5.93;2.30;;;;;;;;;;5071445;28;20412;-75
2023/07/17 11:48:42;;;;;;;5.20;2.17;;;;;;;;;;5071782;28;20056;-75
2023/07/17 11:51:09;;;;;;;6.68;2.22;;;;;;;;;;5051901;28;20048;-75
2023/07/17 11:53:36;;;;;;;6.80;2.30;;;;;;;;;;5068648;28;20484;-74
2023/07/17 11:56:03;;;;;;;8.07;2.50;;;;;;;;;;5068725;28;20091;-74
2023/07/17 11:58:35;;;;;;;5.55;2.47;;;;;;;;;;5071759;28;20051;-73
2023/07/17 12:01:02;;;;;;;7.40;2.30;;;;;;;;;;5072602;28;20105;-72
2023/07/17 12:03:29;;;;;;;5.65;2.15;;;;;;;;;;5055188;28;20033;-74
2023/07/17 12:05:55;;;;;;;6.47;2.25;;;;;;;;;;5072771;28;20046;-75
2023/07/17 12:08:21;;;;;;;5.28;2.30;;;;;;;;;;5072954;28;20047;-74
2023/07/17 12:10:47;;;;;;;6.43;2.30;;;;;;;;;;5067594;28;20036;-75
2023/07/17 12:13:14;;;;;;;8.25;2.45;;;;;;;;;;5053462;28;20124;-74
2023/07/17 12:15:41;;;;;;;5.10;2.20;;;;;;;;;;5055070;28;20049;-74
2023/07/17 12:18:07;;;;;;;8.35;2.67;;;;;;;;;;5071681;28;20090;-74
2023/07/17 12:20:33;;;;;;;6.43;2.70;;;;;;;;;;5071961;28;20040;-74
2023/07/17 12:22:59;;;;;;;8.43;2.53;;;;;;;;;;5071995;28;20529;-74
2023/07/17 12:25:26;;;;;;;6.45;2.55;;;;;;;;;;5054060;28;20048;-74
2023/07/17 12:27:52;;;;;;;6.50;2.58;;;;;;;;;;5072256;28;20047;-75
2023/07/17 12:30:20;;;;;;;5.72;2.50;;;;;;;;;;5071825;28;20046;-75
2023/07/17 12:32:46;;;;;;;5.32;2.13;;;;;;;;;;5070789;28;20500;-75
2023/07/17 12:35:13;;;;;;;8.43;3.05;;;;;;;;;;5070575;28;20083;-74
2023/07/17 12:37:39;;;;;;;6.10;2.20;;;;;;;;;;5071925;28;20045;-75
2023/07/17 12:40:05;;;;;;;5.97;2.30;;;;;;;;;;5054051;28;20076;-75
2023/07/17 12:42:31;;;;;;;5.65;2.10;;;;;;;;;;5072291;28;20075;-75
2023/07/17 12:44:57;;;;;;;8.57;2.70;;;;;;;;;;5053299;28;20056;-74
2023/07/17 12:47:23;;;;;;;6.00;2.38;;;;;;;;;;5071674;28;20044;-74
2023/07/17 12:49:51;;;;;;;7.72;2.33;;;;;;;;;;5069070;28;20396;-73
2023/07/17 12:52:17;;;;;;;6.05;2.88;;;;;;;;;;5052170;28;20048;-73
2023/07/17 12:54:43;;;;;;;8.55;2.50;;;;;;;;;;5070793;28;20040;-73
2023/07/17 12:57:09;;;;;;;6.80;2.70;;;;;;;;;;5070855;28;20059;-73
2023/07/17 12:59:35;;;;;;;8.35;2.75;;;;;;;;;;5069466;28;20040;-73
2023/07/17 13:02:02;;;;;;;6.72;2.70;;;;;;;;;;5069447;28;20040;-73
2023/07/17 13:04:29;;;;;;;6.90;2.55;;;;;;;;;;5070093;28;20050;-72
2023/07/17 13:06:55;;;;;;;5.97;2.35;;;;;;;;;;5071213;28;20161;-74
2023/07/17 13:09:21;;;;;;;5.43;2.50;;;;;;;;;;5048271;28;20101;-74
2023/07/17 13:11:48;;;;;;;5.72;2.53;;;;;;;;;;5060346;28;20048;-73
2023/07/17 13:14:14;;;;;;;4.95;2.50;;;;;;;;;;5060891;28;20061;-73
2023/07/17 13:16:40;;;;;;;6.32;2.33;;;;;;;;;;5059784;28;20032;-74
2023/07/17 13:19:06;;;;;;;8.07;2.95;;;;;;;;;;5075997;28;20082;-74
2023/07/17 13:21:32;;;;;;;7.40;2.70;;;;;;;;;;5036994;28;20041;-74
2023/07/17 13:24:00;;;;;;;8.63;2.65;;;;;;;;;;5075303;28;20131;-74
2023/07/17 13:26:28;;;;;;;6.03;2.67;;;;;;;;;;5041414;28;20079;-74
2023/07/17 13:28:55;;;;;;;6.82;2.63;;;;;;;;;;5075829;28;20447;-73
2023/07/17 13:31:22;;;;;;;6.13;2.50;;;;;;;;;;5075729;28;20078;-73
2023/07/17 13:33:48;;;;;;;7.75;2.50;;;;;;;;;;5075232;28;20439;-73
2023/07/17 13:36:15;;;;;;;5.82;2.55;;;;;;;;;;5061457;28;20072;-73
2023/07/17 13:38:42;;;;;;;6.65;2.40;;;;;;;;;;5075626;28;20043;-73
2023/07/17 13:41:12;;;;;;;5.90;2.40;;;;;;;;;;5083409;28;20041;-73
2023/07/17 13:43:39;;;;;;;4.20;2.20;;;;;;;;;;5074318;28;20059;-73
2023/07/17 13:46:05;;;;;;;5.22;2.38;;;;;;;;;;5075415;28;20376;-71
2023/07/17 13:48:31;;;;;;;9.07;2.53;;;;;;;;;;5074325;28;20041;-74
2023/07/17 13:50:57;;;;;;;8.05;2.30;;;;;;;;;;5075375;28;20041;-73
2023/07/17 13:53:23;;;;;;;5.80;2.55;;;;;;;;;;5077850;28;20492;-74
2023/07/17 13:55:49;;;;;;;9.98;2.30;;;;;;;;;;5056428;28;20445;-74
2023/07/17 13:58:15;;;;;;;5.32;2.30;;;;;;;;;;5074987;28;20084;-74
2023/07/17 14:00:42;;;;;;;5.70;2.38;;;;;;;;;;5074848;28;20119;-74
2023/07/17 14:03:08;;;;;;;6.45;2.20;;;;;;;;;;5039800;28;20603;-74
2023/07/17 14:05:34;;;;;;;5.93;2.13;;;;;;;;;;5048266;28;20209;-74
2023/07/17 14:08:03;;;;;;;7.95;2.50;;;;;;;;;;5081946;28;20040;-74
2023/07/17 14:10:29;;;;;;;6.55;2.30;;;;;;;;;;5089714;28;20105;-74
2023/07/17 14:12:55;;;;;;;8.43;2.55;;;;;;;;;;5053870;28;20612;-74
2023/07/17 14:15:21;;;;;;;6.38;2.47;;;;;;;;;;5071815;28;20139;-75
2023/07/17 14:17:50;;;;;;;6.95;2.38;;;;;;;;;;5059700;28;20037;-74
2023/07/17 14:20:16;;;;;;;4.43;2.33;;;;;;;;;;5051913;28;20474;-74
2023/07/17 14:22:44;;;;;;;7.28;2.53;;;;;;;;;;5050656;28;20037;-74
2023/07/17 14:25:10;;;;;;;4.80;2.30;;;;;;;;;;5051737;28;20126;-74
2023/07/17 14:27:36;;;;;;;7.50;2.30;;;;;;;;;;5051578;28;20053;-74
2023/07/17 14:30:03;;;;;;;7.38;2.58;;;;;;;;;;5051713;28;20103;-74
2023/07/17 14:32:29;;;;;;;10.85;2.60;;;;;;;;;;5051585;28;20412;-74
2023/07/17 14:34:55;;;;;;;5.60;2.00;;;;;;;;;;5059028;28;20032;-73
2023/07/17 14:37:22;;;;;;;5.75;2.30;;;;;;;;;;5073694;28;20492;-74